Time;durP1;ratioP1;P1;durP2;ratioP2;P2;SDS_P1;SDS_P2;PMS_P1;PMS_P2;Temp;Humidity;BMP_temperature;BMP_pressure;BME280_temperature;BME280_humidity;BME280_pressure;Samples;Min_cycle;Max_cycle;Signal;HPM_P1;HPM_P2
2023/05/16 00:01:37;;;;;;;;;;;;;;;15.33;71.35;94344.06;4227812;28;19959;-62
2023/05/16 00:03:38;;;;;;;;;;;;;;;15.29;71.85;94340.19;4228655;28;19923;-62
2023/05/16 00:05:40;;;;;;;;;;;;;;;15.26;71.84;94335.34;4228802;28;20019;-60
2023/05/16 00:07:42;;;;;;;;;;;;;;;15.24;72.19;94332.06;4227211;28;20394;-60
2023/05/16 00:09:44;;;;;;;;;;;;;;;15.22;72.11;94329.63;4222845;28;20335;-59
2023/05/16 00:11:47;;;;;;;;;;;;;;;15.23;72.26;94333.06;4214694;28;19920;-59
2023/05/16 00:13:48;;;;;;;;;;;;;;;15.26;72.24;94330.06;4216810;28;20022;-59
2023/05/16 00:15:50;;;;;;;;;;;;;;;15.24;72.08;94324.97;4224383;28;20464;-60
2023/05/16 00:17:56;;;;;;;;;;;;;;;15.23;72.17;94322.50;4229538;28;19920;-60
2023/05/16 00:19:59;;;;;;;;;;;;;;;15.26;72.31;94324.78;4220524;28;20341;-60
2023/05/16 00:22:00;;;;;;;;;;;;;;;15.25;72.12;94321.34;4215675;28;19928;-59
2023/05/16 00:24:02;;;;;;;;;;;;;;;15.25;72.27;94323.13;4218322;28;20385;-60
2023/05/16 00:26:04;;;;;;;;;;;;;;;15.26;72.13;94324.78;4213861;28;19920;-59
2023/05/16 00:28:06;;;;;;;;;;;;;;;15.24;72.08;94319.69;4219431;28;20404;-58
2023/05/16 00:30:07;;;;;;;;;;;;;;;15.21;72.36;94322.72;4225235;28;19961;-58
2023/05/16 00:32:09;;;;;;;;;;;;;;;15.15;72.76;94318.22;4215807;28;19966;-60
2023/05/16 00:34:11;;;;;;;;;;;;;;;15.10;72.93;94312.72;4227768;28;20400;-60
2023/05/16 00:36:12;;;;;;;;;;;;;;;15.05;73.12;94310.66;4228835;28;19927;-60
2023/05/16 00:38:14;;;;;;;;;;;;;;;15.06;73.18;94306.22;4228892;28;19920;-58
2023/05/16 00:40:15;;;;;;;;;;;;;;;15.07;73.51;94298.09;4213473;27;19920;-59
2023/05/16 00:42:20;;;;;;;;;;;;;;;15.07;73.39;94303.38;4218043;28;19943;-60
2023/05/16 00:44:21;;;;;;;;;;;;;;;15.09;73.19;94298.72;4223216;28;19924;-58
2023/05/16 00:46:23;;;;;;;;;;;;;;;15.05;73.21;94294.84;4217353;28;19971;-56
2023/05/16 00:48:25;;;;;;;;;;;;;;;15.04;73.21;94287.16;4222885;28;19928;-60
2023/05/16 00:50:26;;;;;;;;;;;;;;;14.97;73.55;94281.00;4229658;28;20397;-58
2023/05/16 00:52:29;;;;;;;;;;;;;;;14.95;73.72;94273.31;4221357;28;19920;-60
2023/05/16 00:54:31;;;;;;;;;;;;;;;14.91;73.74;94277.34;4226798;28;20389;-57
2023/05/16 00:56:32;;;;;;;;;;;;;;;14.90;73.87;94279.16;4218827;28;20264;-59
2023/05/16 00:58:34;;;;;;;;;;;;;;;14.90;74.02;94275.72;4221905;28;19920;-57
2023/05/16 01:00:36;;;;;;;;;;;;;;;14.92;73.74;94279.78;4222696;28;20381;-61
2023/05/16 01:02:38;;;;;;;;;;;;;;;14.96;73.72;94280.19;4227964;28;19919;-59
2023/05/16 01:04:40;;;;;;;;;;;;;;;14.98;73.42;94286.09;4226471;28;20023;-61
2023/05/16 01:06:41;;;;;;;;;;;;;;;14.95;73.25;94279.41;4227092;28;19931;-59
2023/05/16 01:08:43;;;;;;;;;;;;;;;14.97;73.24;94270.47;4229218;28;19919;-60
2023/05/16 01:10:47;;;;;;;;;;;;;;;15.02;73.41;94281.25;4223413;27;20325;-60
2023/05/16 01:12:56;;;;;;;;;;;;;;;15.02;73.31;94278.63;4204732;28;19919;-60
2023/05/16 01:14:57;;;;;;;;;;;;;;;15.01;73.20;94276.97;4228460;28;20072;-62
2023/05/16 01:16:59;;;;;;;;;;;;;;;14.97;73.48;94273.94;4228603;28;19976;-60
2023/05/16 01:19:06;;;;;;;;;;;;;;;14.93;73.38;94283.25;4224675;28;19919;-59
2023/05/16 01:21:14;;;;;;;;;;;;;;;14.92;73.62;94268.41;4214325;28;19920;-60
2023/05/16 01:23:29;;;;;;;;;;;;;;;14.86;73.87;94279.75;4215274;28;19919;-58
2023/05/16 01:25:31;;;;;;;;;;;;;;;14.86;74.01;94274.47;4215994;28;20054;-60
2023/05/16 01:27:33;;;;;;;;;;;;;;;14.86;74.13;94262.13;4215220;28;19924;-60
2023/05/16 01:29:35;;;;;;;;;;;;;;;14.88;74.11;94267.19;4228484;28;19919;-60
2023/05/16 01:31:36;;;;;;;;;;;;;;;14.88;73.97;94261.91;4217074;28;19920;-59
2023/05/16 01:33:38;;;;;;;;;;;;;;;14.88;74.09;94257.44;4223865;28;19923;-60
2023/05/16 01:35:43;;;;;;;;;;;;;;;14.88;73.95;94248.72;4219538;28;20409;-61
2023/05/16 01:37:49;;;;;;;;;;;;;;;14.86;73.94;94248.09;4221849;28;20019;-59
2023/05/16 01:39:55;;;;;;;;;;;;;;;14.87;74.07;94249.75;4222388;28;20275;-61
2023/05/16 01:42:02;;;;;;;;;;;;;;;14.89;74.08;94243.25;4219109;28;20303;-58
2023/05/16 01:44:06;;;;;;;;;;;;;;;14.71;74.45;94241.16;4225108;28;19924;-57
2023/05/16 01:46:11;;;;;;;;;;;;;;;14.70;74.88;94236.88;4223898;28;19927;-58
2023/05/16 01:48:16;;;;;;;;;;;;;;;14.73;74.50;94233.88;4218567;28;19919;-59
2023/05/16 01:50:17;;;;;;;;;;;;;;;14.81;74.24;94237.34;4220924;28;19970;-58
2023/05/16 01:52:25;;;;;;;;;;;;;;;14.85;74.10;94231.47;4223216;28;19920;-60
2023/05/16 01:54:28;;;;;;;;;;;;;;;14.90;74.11;94233.50;4222345;28;20011;-58
2023/05/16 01:56:30;;;;;;;;;;;;;;;14.92;73.91;94236.75;4225354;28;20413;-60
2023/05/16 01:58:32;;;;;;;;;;;;;;;14.92;73.74;94234.13;4224526;28;19957;-61
2023/05/16 02:00:34;;;;;;;;;;;;;;;14.92;73.33;94236.75;4219857;28;20013;-58
2023/05/16 02:02:35;;;;;;;;;;;;;;;14.92;73.44;94231.50;4222736;28;19928;-61
2023/05/16 02:04:37;;;;;;;;;;;;;;;14.91;73.31;94219.31;4225011;28;20328;-60
2023/05/16 02:06:38;;;;;;;;;;;;;;;14.88;73.28;94225.78;4224380;28;19924;-60
2023/05/16 02:08:40;;;;;;;;;;;;;;;14.91;73.65;94238.59;4221346;28;19962;-60
2023/05/16 02:10:41;;;;;;;;;;;;;;;14.89;73.36;94235.34;4221443;28;20038;-59
2023/05/16 02:12:43;;;;;;;;;;;;;;;14.87;73.53;94231.28;4218627;28;19920;-62
2023/05/16 02:14:44;;;;;;;;;;;;;;;14.81;73.76;94230.22;4225388;28;19935;-60
2023/05/16 02:16:47;;;;;;;;;;;;;;;14.79;73.81;94232.25;4212698;28;19955;-61
2023/05/16 02:18:48;;;;;;;;;;;;;;;14.82;74.09;94225.75;4213945;28;19919;-59
2023/05/16 02:20:50;;;;;;;;;;;;;;;14.80;73.97;94231.25;4215002;28;19924;-60
2023/05/16 02:22:52;;;;;;;;;;;;;;;14.79;73.91;94221.69;4214294;28;19930;-59
2023/05/16 02:24:55;;;;;;;;;;;;;;;14.74;73.81;94222.28;4214200;28;19920;-59
2023/05/16 02:26:56;;;;;;;;;;;;;;;14.74;73.79;94226.75;4216675;28;19920;-58
2023/05/16 02:28:58;;;;;;;;;;;;;;;14.71;74.06;94225.34;4227807;28;19926;-61
2023/05/16 02:31:00;;;;;;;;;;;;;;;14.67;74.19;94224.09;4223171;28;19924;-59
2023/05/16 02:33:01;;;;;;;;;;;;;;;14.54;74.54;94226.63;4222844;28;20235;-60
2023/05/16 02:35:03;;;;;;;;;;;;;;;14.40;75.33;94230.19;4212709;28;19920;-60
2023/05/16 02:37:05;;;;;;;;;;;;;;;14.33;75.65;94236.25;4227610;28;19920;-60
2023/05/16 02:39:08;;;;;;;;;;;;;;;14.29;75.72;94231.56;4227733;28;19948;-59
2023/05/16 02:41:10;;;;;;;;;;;;;;;14.32;75.83;94233.78;4226225;28;20413;-61
2023/05/16 02:43:11;;;;;;;;;;;;;;;14.39;75.62;94229.41;4226842;28;19974;-60
2023/05/16 02:45:13;;;;;;;;;;;;;;;14.42;75.22;94231.63;4228763;28;19919;-59
2023/05/16 02:47:14;;;;;;;;;;;;;;;14.40;75.26;94227.56;4224333;28;20353;-60
2023/05/16 02:49:16;;;;;;;;;;;;;;;14.39;75.06;94221.50;4224738;28;19923;-61
2023/05/16 02:51:21;;;;;;;;;;;;;;;14.25;75.77;94223.22;4223999;28;19920;-62
2023/05/16 02:53:23;;;;;;;;;;;;;;;14.14;76.38;94219.28;4227406;28;20171;-61
2023/05/16 02:55:25;;;;;;;;;;;;;;;14.17;76.34;94212.00;4228490;28;20512;-59
2023/05/16 02:57:26;;;;;;;;;;;;;;;14.20;76.36;94219.53;4212843;28;19920;-59
2023/05/16 02:59:27;;;;;;;;;;;;;;;14.25;76.39;94222.41;4228133;28;20316;-62
2023/05/16 03:01:29;;;;;;;;;;;;;;;14.33;76.07;94211.72;4218919;28;19987;-60
2023/05/16 03:03:34;;;;;;;;;;;;;;;14.38;75.70;94219.03;4225809;28;19919;-60
2023/05/16 03:05:36;;;;;;;;;;;;;;;14.42;75.52;94210.53;4223731;28;19950;-60
2023/05/16 03:07:37;;;;;;;;;;;;;;;14.48;75.38;94214.25;4221421;28;19924;-60
2023/05/16 03:09:39;;;;;;;;;;;;;;;14.50;74.98;94212.22;4220036;28;19966;-60
2023/05/16 03:11:41;;;;;;;;;;;;;;;14.52;74.94;94210.22;4226319;28;19963;-60
2023/05/16 03:13:42;;;;;;;;;;;;;;;14.55;75.04;94209.84;4223249;28;19978;-59
2023/05/16 03:15:44;;;;;;;;;;;;;;;14.59;74.78;94211.06;4225991;28;20333;-59
2023/05/16 03:17:46;;;;;;;;;;;;;;;14.61;74.63;94216.16;4225033;28;20318;-61
2023/05/16 03:19:48;;;;;;;;;;;;;;;14.62;74.39;94212.50;4217857;28;19925;-60
2023/05/16 03:21:49;;;;;;;;;;;;;;;14.63;74.49;94219.41;4215099;28;19970;-59
2023/05/16 03:23:51;;;;;;;;;;;;;;;14.61;74.59;94211.69;4215422;28;19926;-59
2023/05/16 03:25:52;;;;;;;;;;;;;;;14.59;74.37;94220.81;4211710;28;19924;-57
2023/05/16 03:27:54;;;;;;;;;;;;;;;14.59;74.55;94215.53;4222342;28;20432;-59
2023/05/16 03:29:55;;;;;;;;;;;;;;;14.59;74.64;94216.34;4226675;28;19931;-59
2023/05/16 03:31:57;;;;;;;;;;;;;;;14.58;74.57;94214.69;4217547;28;19982;-59
2023/05/16 03:33:58;;;;;;;;;;;;;;;14.60;74.33;94210.03;4226088;28;19920;-57
2023/05/16 03:36:00;;;;;;;;;;;;;;;14.63;74.62;94212.31;4227037;28;20006;-60
2023/05/16 03:38:02;;;;;;;;;;;;;;;14.66;74.21;94211.91;4226092;28;19927;-60
2023/05/16 03:40:04;;;;;;;;;;;;;;;14.66;74.03;94206.63;4230421;28;19919;-58
2023/05/16 03:42:06;;;;;;;;;;;;;;;14.67;74.06;94210.06;4230395;28;19920;-58
2023/05/16 03:44:08;;;;;;;;;;;;;;;14.68;74.09;94209.88;4220125;28;20312;-59
2023/05/16 03:46:09;;;;;;;;;;;;;;;14.71;74.22;94206.03;4214415;28;19942;-60
2023/05/16 03:48:11;;;;;;;;;;;;;;;14.67;74.21;94213.56;4213540;28;19920;-57
2023/05/16 03:50:12;;;;;;;;;;;;;;;14.69;73.98;94210.69;4219304;28;19931;-57
2023/05/16 03:52:14;;;;;;;;;;;;;;;14.67;74.25;94202.16;4218733;28;20011;-56
2023/05/16 03:54:15;;;;;;;;;;;;;;;14.68;74.53;94198.53;4214051;28;19926;-59
2023/05/16 03:56:17;;;;;;;;;;;;;;;14.68;74.22;94209.88;4229968;28;20455;-61
2023/05/16 03:58:18;;;;;;;;;;;;;;;14.68;74.22;94212.53;4229918;27;20502;-58
2023/05/16 04:00:20;;;;;;;;;;;;;;;14.65;74.09;94209.50;4229522;28;19920;-59
2023/05/16 04:02:21;;;;;;;;;;;;;;;14.59;74.07;94212.91;4227406;28;20083;-62
2023/05/16 04:04:23;;;;;;;;;;;;;;;14.59;74.64;94213.72;4226155;28;19926;-61
2023/05/16 04:06:24;;;;;;;;;;;;;;;14.58;74.31;94206.78;4212850;28;19974;-60
2023/05/16 04:08:26;;;;;;;;;;;;;;;14.59;74.37;94205.00;4214217;28;20007;-61
2023/05/16 04:10:27;;;;;;;;;;;;;;;14.59;74.52;94211.06;4226662;28;20370;-63
2023/05/16 04:12:29;;;;;;;;;;;;;;;14.54;74.17;94214.28;4229090;28;19959;-60
2023/05/16 04:14:31;;;;;;;;;;;;;;;14.56;74.55;94218.53;4228806;28;19920;-61
2023/05/16 04:16:32;;;;;;;;;;;;;;;14.54;74.63;94213.47;4228766;28;19951;-60
2023/05/16 04:18:34;;;;;;;;;;;;;;;14.54;74.49;94218.72;4225653;28;20042;-61
2023/05/16 04:20:35;;;;;;;;;;;;;;;14.57;74.36;94217.56;4218154;28;20297;-60
2023/05/16 04:22:37;;;;;;;;;;;;;;;14.59;74.38;94218.19;4216115;28;19927;-61
2023/05/16 04:24:38;;;;;;;;;;;;;;;14.60;74.18;94217.97;4217711;28;20366;-61
2023/05/16 04:26:40;;;;;;;;;;;;;;;14.61;74.24;94219.59;4229321;28;19923;-59
2023/05/16 04:28:41;;;;;;;;;;;;;;;14.64;74.27;94210.47;4217199;28;19974;-60
2023/05/16 04:30:43;;;;;;;;;;;;;;;14.65;74.40;94212.13;4222117;28;19967;-60
2023/05/16 04:32:44;;;;;;;;;;;;;;;14.67;74.19;94207.44;4222892;28;19962;-60
2023/05/16 04:34:47;;;;;;;;;;;;;;;14.68;74.04;94215.16;4228210;28;19974;-61
2023/05/16 04:36:48;;;;;;;;;;;;;;;14.70;74.27;94196.53;4215789;28;19942;-61
2023/05/16 04:38:51;;;;;;;;;;;;;;;14.74;74.05;94203.84;4229951;28;20385;-61
2023/05/16 04:40:52;;;;;;;;;;;;;;;14.73;73.73;94204.03;4229584;28;19939;-60
2023/05/16 04:42:54;;;;;;;;;;;;;;;14.73;74.07;94204.84;4227467;28;19924;-60
2023/05/16 04:44:56;;;;;;;;;;;;;;;14.72;74.17;94200.59;4225521;28;19927;-60
2023/05/16 04:46:57;;;;;;;;;;;;;;;14.74;74.28;94198.56;4220610;28;20326;-60
2023/05/16 04:48:59;;;;;;;;;;;;;;;14.78;74.27;94198.16;4227765;28;20387;-61
2023/05/16 04:51:01;;;;;;;;;;;;;;;14.77;73.83;94199.19;4226795;27;19924;-61
2023/05/16 04:53:02;;;;;;;;;;;;;;;14.80;73.85;94201.41;4215450;28;19920;-60
2023/05/16 04:55:04;;;;;;;;;;;;;;;14.80;73.91;94201.41;4229530;28;19924;-62
2023/05/16 04:57:06;;;;;;;;;;;;;;;14.66;74.40;94201.38;4227854;28;19970;-60
2023/05/16 04:59:08;;;;;;;;;;;;;;;14.65;74.88;94194.47;4226725;28;19927;-59
2023/05/16 05:01:09;;;;;;;;;;;;;;;14.66;74.47;94190.81;4228860;28;19935;-59
2023/05/16 05:03:11;;;;;;;;;;;;;;;14.65;74.59;94188.41;4227640;28;19920;-62
2023/05/16 05:05:12;;;;;;;;;;;;;;;14.68;74.98;94194.06;4228157;28;19930;-61
2023/05/16 05:07:14;;;;;;;;;;;;;;;14.71;74.63;94195.50;4224799;28;20018;-60
2023/05/16 05:09:16;;;;;;;;;;;;;;;14.74;74.34;94192.47;4228338;28;19959;-60
2023/05/16 05:11:18;;;;;;;;;;;;;;;14.74;74.15;94201.19;4228149;28;19919;-62
2023/05/16 05:13:19;;;;;;;;;;;;;;;14.77;73.97;94205.25;4227041;28;19926;-61
2023/05/16 05:15:21;;;;;;;;;;;;;;;14.79;73.94;94202.44;4224957;28;20174;-62
2023/05/16 05:17:22;;;;;;;;;;;;;;;14.70;73.79;94199.97;4228634;28;19920;-65
2023/05/16 05:19:24;;;;;;;;;;;;;;;14.72;74.25;94199.78;4225580;28;19986;-64
2023/05/16 05:21:25;;;;;;;;;;;;;;;14.74;74.38;94195.94;4216140;28;19955;-61
2023/05/16 05:23:27;;;;;;;;;;;;;;;14.76;74.44;94194.94;4214750;28;19927;-60
2023/05/16 05:25:28;;;;;;;;;;;;;;;14.77;73.99;94200.00;4228672;28;20011;-60
2023/05/16 05:27:30;;;;;;;;;;;;;;;14.71;73.35;94190.22;4224837;28;20293;-63
2023/05/16 05:29:31;;;;;;;;;;;;;;;14.70;73.73;94192.06;4226449;28;19920;-63
2023/05/16 05:31:33;;;;;;;;;;;;;;;14.65;73.20;94189.19;4211595;28;19971;-64
2023/05/16 05:33:35;;;;;;;;;;;;;;;14.69;73.18;94179.06;4225097;28;20377;-64
2023/05/16 05:35:37;;;;;;;;;;;;;;;14.73;73.12;94180.28;4226525;28;19958;-64
2023/05/16 05:37:38;;;;;;;;;;;;;;;14.79;72.78;94181.34;4221358;28;20486;-60
2023/05/16 05:39:40;;;;;;;;;;;;;;;14.84;72.64;94176.28;4222181;28;20274;-63
2023/05/16 05:41:41;;;;;;;;;;;;;;;14.92;72.58;94171.63;4207546;28;20426;-63
2023/05/16 05:43:43;;;;;;;;;;;;;;;14.94;72.21;94166.16;4225389;28;19923;-63
2023/05/16 05:45:44;;;;;;;;;;;;;;;14.89;72.47;94163.31;4217752;28;19955;-63
2023/05/16 05:47:45;;;;;;;;;;;;;;;14.83;72.49;94158.84;4212185;28;19920;-63
2023/05/16 05:49:48;;;;;;;;;;;;;;;14.86;72.64;94161.91;4225652;28;20010;-60
2023/05/16 05:51:51;;;;;;;;;;;;;;;14.91;72.89;94156.03;4227712;28;20334;-62
2023/05/16 05:53:52;;;;;;;;;;;;;;;14.93;72.59;94156.66;4227454;28;20007;-62
2023/05/16 05:55:54;;;;;;;;;;;;;;;14.92;72.54;94158.44;4226597;28;19920;-63
2023/05/16 05:57:55;;;;;;;;;;;;;;;14.93;72.39;94161.91;4224399;27;20350;-64
2023/05/16 05:59:57;;;;;;;;;;;;;;;14.88;72.55;94159.84;4212687;28;19990;-63
2023/05/16 06:01:58;;;;;;;;;;;;;;;14.91;72.98;94156.84;4223536;28;19920;-61
2023/05/16 06:04:00;;;;;;;;;;;;;;;14.95;72.44;94167.81;4225024;28;19926;-62
2023/05/16 06:06:03;;;;;;;;;;;;;;;14.90;72.72;94163.09;4228179;28;20316;-62
2023/05/16 06:08:04;;;;;;;;;;;;;;;14.98;72.44;94167.41;4225784;28;19959;-62
2023/05/16 06:10:07;;;;;;;;;;;;;;;14.97;72.61;94165.78;4227499;28;20014;-63
2023/05/16 06:12:08;;;;;;;;;;;;;;;15.05;72.18;94176.13;4225522;28;20316;-62
2023/05/16 06:14:10;;;;;;;;;;;;;;;15.08;72.27;94173.13;4222728;28;19923;-62
2023/05/16 06:16:12;;;;;;;;;;;;;;;15.02;72.01;94168.63;4220549;28;19927;-63
2023/05/16 06:18:14;;;;;;;;;;;;;;;14.99;72.17;94174.28;4214323;28;20475;-63
2023/05/16 06:20:15;;;;;;;;;;;;;;;15.04;72.33;94173.72;4217618;28;20475;-63
2023/05/16 06:22:17;;;;;;;;;;;;;;;15.06;71.80;94166.41;4224192;28;19920;-63
2023/05/16 06:24:18;;;;;;;;;;;;;;;15.06;71.84;94169.88;4215745;28;19931;-63
2023/05/16 06:26:21;;;;;;;;;;;;;;;15.04;72.02;94160.53;4215037;28;20439;-61
2023/05/16 06:28:23;;;;;;;;;;;;;;;15.02;71.82;94158.09;4226588;28;19926;-63
2023/05/16 06:30:24;;;;;;;;;;;;;;;15.00;71.70;94160.09;4215342;28;19920;-62
2023/05/16 06:32:26;;;;;;;;;;;;;;;15.06;71.70;94156.69;4219525;28;19924;-62
2023/05/16 06:34:27;;;;;;;;;;;;;;;15.02;71.66;94150.16;4217544;28;20021;-66
2023/05/16 06:36:29;;;;;;;;;;;;;;;15.01;71.69;94143.25;4210485;28;19942;-64
2023/05/16 06:38:31;;;;;;;;;;;;;;;15.07;71.40;94139.81;4227543;28;19931;-64
2023/05/16 06:40:33;;;;;;;;;;;;;;;15.16;71.21;94127.25;4227373;28;20362;-62
2023/05/16 06:42:34;;;;;;;;;;;;;;;15.20;70.73;94123.19;4227619;28;20361;-64
2023/05/16 06:44:36;;;;;;;;;;;;;;;15.23;70.57;94132.53;4225522;28;19919;-62
2023/05/16 06:46:37;;;;;;;;;;;;;;;15.19;70.16;94120.78;4216007;28;19928;-60
2023/05/16 06:48:39;;;;;;;;;;;;;;;15.23;70.17;94127.25;4223438;28;19934;-61
2023/05/16 06:50:41;;;;;;;;;;;;;;;15.28;70.10;94122.19;4223447;28;20369;-61
2023/05/16 06:52:44;;;;;;;;;;;;;;;15.36;69.71;94119.38;4223858;28;19923;-59
2023/05/16 06:54:45;;;;;;;;;;;;;;;15.34;69.31;94110.84;4217401;28;19920;-61
2023/05/16 06:56:47;;;;;;;;;;;;;;;15.38;69.13;94106.78;4228048;28;19919;-62
2023/05/16 06:58:49;;;;;;;;;;;;;;;15.44;69.01;94108.59;4227757;28;19920;-62
2023/05/16 07:00:50;;;;;;;;;;;;;;;15.48;68.70;94096.63;4226194;28;19924;-61
2023/05/16 07:02:52;;;;;;;;;;;;;;;15.50;68.46;94102.50;4220221;28;20295;-60
2023/05/16 07:04:54;;;;;;;;;;;;;;;15.61;68.39;94110.81;4227263;28;19930;-61
2023/05/16 07:06:55;;;;;;;;;;;;;;;15.71;68.28;94113.88;4226571;28;19934;-61
2023/05/16 07:08:57;;;;;;;;;;;;;;;15.67;68.15;94108.19;4225505;28;20243;-61
2023/05/16 07:10:58;;;;;;;;;;;;;;;15.72;68.23;94089.94;4222176;28;19920;-59
2023/05/16 07:13:01;;;;;;;;;;;;;;;15.73;67.83;94088.09;4224578;28;19919;-62
2023/05/16 07:15:02;;;;;;;;;;;;;;;15.73;67.91;94091.56;4218184;28;19927;-62
2023/05/16 07:17:04;;;;;;;;;;;;;;;15.81;67.58;94079.97;4217887;28;19969;-60
2023/05/16 07:19:06;;;;;;;;;;;;;;;15.82;67.49;94078.94;4226708;28;19974;-62
2023/05/16 07:21:08;;;;;;;;;;;;;;;15.83;67.46;94095.59;4217763;28;19924;-61
2023/05/16 07:23:10;;;;;;;;;;;;;;;15.88;67.40;94079.97;4217958;28;20553;-59
2023/05/16 07:25:13;;;;;;;;;;;;;;;15.85;67.50;94070.63;4221431;28;20038;-62
2023/05/16 07:27:15;;;;;;;;;;;;;;;15.83;67.56;94063.91;4211134;28;19930;-63
2023/05/16 07:29:17;;;;;;;;;;;;;;;15.87;67.56;94068.56;4229821;28;19926;-62
2023/05/16 07:31:18;;;;;;;;;;;;;;;15.84;67.74;94073.47;4218164;28;19939;-63
2023/05/16 07:33:20;;;;;;;;;;;;;;;15.81;67.74;94072.06;4226749;28;19963;-62
2023/05/16 07:35:21;;;;;;;;;;;;;;;15.87;67.87;94081.75;4219569;28;19920;-62
2023/05/16 07:37:23;;;;;;;;;;;;;;;15.87;67.60;94086.25;4230947;28;19919;-63
2023/05/16 07:39:25;;;;;;;;;;;;;;;15.86;67.68;94105.75;4231796;28;19969;-64
2023/05/16 07:41:27;;;;;;;;;;;;;;;16.01;67.57;94114.25;4217094;28;20354;-64
2023/05/16 07:43:29;;;;;;;;;;;;;;;16.06;67.18;94117.09;4230942;28;19919;-61
2023/05/16 07:45:31;;;;;;;;;;;;;;;16.19;66.50;94121.53;4222567;28;19946;-61
2023/05/16 07:47:32;;;;;;;;;;;;;;;16.26;66.46;94124.16;4212687;28;19973;-62
2023/05/16 07:49:34;;;;;;;;;;;;;;;16.33;65.95;94106.44;4215706;28;19923;-59
2023/05/16 07:51:35;;;;;;;;;;;;;;;16.42;66.01;94107.84;4227942;28;19923;-60
2023/05/16 07:53:37;;;;;;;;;;;;;;;16.46;65.70;94103.75;4226216;28;19927;-61
2023/05/16 07:55:39;;;;;;;;;;;;;;;16.52;65.56;94094.16;4227855;28;20036;-63
2023/05/16 07:57:42;;;;;;;;;;;;;;;16.55;65.31;94099.03;4226145;28;20373;-61
2023/05/16 07:59:44;;;;;;;;;;;;;;;16.54;65.20;94092.94;4228285;28;20022;-62
2023/05/16 08:01:45;;;;;;;;;;;;;;;16.49;65.20;94079.53;4230755;28;19923;-65
2023/05/16 08:03:51;;;;;;;;;;;;;;;16.54;65.34;94078.88;4227990;28;20447;-60
2023/05/16 08:05:52;;;;;;;;;;;;;;;16.52;65.39;94075.66;4230075;28;19938;-61
2023/05/16 08:07:54;;;;;;;;;;;;;;;16.53;65.53;94086.03;4221922;28;19920;-58
2023/05/16 08:09:56;;;;;;;;;;;;;;;16.46;65.32;94069.38;4224656;28;20300;-62
2023/05/16 08:12:02;;;;;;;;;;;;;;;16.47;65.50;94078.13;4227313;28;20312;-63
2023/05/16 08:14:04;;;;;;;;;;;;;;;16.51;65.53;94077.47;4223699;28;19967;-63
2023/05/16 08:16:06;;;;;;;;;;;;;;;16.49;65.36;94057.56;4222243;28;20421;-62
2023/05/16 08:18:11;;;;;;;;;;;;;;;16.45;65.57;94072.22;4227525;28;20134;-62
2023/05/16 08:20:13;;;;;;;;;;;;;;;16.50;65.72;94067.94;4219033;28;19928;-61
2023/05/16 08:22:15;;;;;;;;;;;;;;;16.58;65.67;94051.84;4217658;28;19968;-63
2023/05/16 08:24:16;;;;;;;;;;;;;;;16.71;65.65;94056.25;4213752;28;19923;-59
2023/05/16 08:26:18;;;;;;;;;;;;;;;16.76;64.69;94053.75;4214134;28;19997;-59
2023/05/16 08:28:20;;;;;;;;;;;;;;;16.83;64.46;94048.47;4228030;28;19920;-63
2023/05/16 08:30:22;;;;;;;;;;;;;;;16.93;64.40;94048.81;4229191;28;19934;-59
2023/05/16 08:32:24;;;;;;;;;;;;;;;17.01;64.43;94052.22;4220586;28;19919;-60
2023/05/16 08:34:26;;;;;;;;;;;;;;;17.00;63.85;94069.94;4228483;28;19949;-59
2023/05/16 08:36:27;;;;;;;;;;;;;;;17.02;63.89;94065.22;4226811;28;20370;-61
2023/05/16 08:38:29;;;;;;;;;;;;;;;17.02;63.72;94056.50;4217224;28;19920;-60
2023/05/16 08:40:30;;;;;;;;;;;;;;;17.04;64.06;94065.84;4222301;28;19926;-60
2023/05/16 08:42:32;;;;;;;;;;;;;;;16.92;64.25;94060.41;4224155;28;19974;-60
2023/05/16 08:44:34;;;;;;;;;;;;;;;17.01;64.34;94065.44;4225282;28;19954;-61
2023/05/16 08:46:36;;;;;;;;;;;;;;;17.06;64.14;94058.50;4225236;28;19923;-62
2023/05/16 08:48:37;;;;;;;;;;;;;;;17.17;63.71;94059.63;4220753;28;19980;-63
2023/05/16 08:50:41;;;;;;;;;;;;;;;17.28;63.00;94063.41;4223679;28;19928;-58
2023/05/16 08:52:43;;;;;;;;;;;;;;;17.34;62.52;94033.44;4225317;28;19930;-61
2023/05/16 08:54:44;;;;;;;;;;;;;;;17.54;61.93;94042.00;4216941;28;19947;-60
2023/05/16 08:56:55;;;;;;;;;;;;;;;17.75;61.71;94061.97;4218813;28;19931;-61
2023/05/16 08:58:57;;;;;;;;;;;;;;;17.94;60.92;94072.59;4227580;28;19989;-61
2023/05/16 09:00:58;;;;;;;;;;;;;;;18.06;61.05;94070.06;4224817;28;19928;-61
2023/05/16 09:03:00;;;;;;;;;;;;;;;18.24;60.61;94069.22;4218619;28;20392;-61
2023/05/16 09:05:02;;;;;;;;;;;;;;;18.32;59.62;94072.41;4227974;28;19919;-58
2023/05/16 09:07:04;;;;;;;;;;;;;;;18.14;60.01;94062.63;4227738;28;19920;-61
2023/05/16 09:09:08;;;;;;;;;;;;;;;18.06;60.07;94072.72;4218747;28;19923;-62
2023/05/16 09:11:09;;;;;;;;;;;;;;;18.04;60.28;94064.97;4228665;28;19927;-61
2023/05/16 09:13:11;;;;;;;;;;;;;;;18.20;60.13;94063.59;4228509;28;19920;-61
2023/05/16 09:15:12;;;;;;;;;;;;;;;18.19;60.12;94049.50;4226810;28;19969;-62
2023/05/16 09:17:14;;;;;;;;;;;;;;;18.15;60.21;94066.88;4212353;28;19927;-62
2023/05/16 09:19:17;;;;;;;;;;;;;;;18.10;59.83;94058.00;4218322;28;20443;-61
2023/05/16 09:21:18;;;;;;;;;;;;;;;18.12;59.86;94061.22;4223428;28;20274;-61
2023/05/16 09:23:22;;;;;;;;;;;;;;;18.05;60.03;94061.31;4226831;28;19926;-61
2023/05/16 09:25:25;;;;;;;;;;;;;;;17.92;59.89;94067.56;4225111;28;19923;-59
2023/05/16 09:27:30;;;;;;;;;;;;;;;17.96;60.14;94068.72;4218546;28;19935;-62
2023/05/16 09:29:31;;;;;;;;;;;;;;;18.11;59.65;94076.31;4227183;28;20339;-59
2023/05/16 09:31:38;;;;;;;;;;;;;;;18.19;59.56;94078.66;4208280;28;19924;-61
2023/05/16 09:33:40;;;;;;;;;;;;;;;18.28;59.43;94078.38;4202960;28;19924;-61
2023/05/16 09:35:42;;;;;;;;;;;;;;;18.37;59.13;94064.59;4221326;28;20313;-62
2023/05/16 09:37:46;;;;;;;;;;;;;;;18.44;59.58;94051.25;4223021;28;20362;-59
2023/05/16 09:39:49;;;;;;;;;;;;;;;18.34;59.51;94067.69;4225981;28;19920;-62
2023/05/16 09:41:51;;;;;;;;;;;;;;;18.47;59.38;94063.25;4220786;28;19926;-60
2023/05/16 09:43:52;;;;;;;;;;;;;;;18.48;59.26;94060.41;4227709;28;19919;-60
2023/05/16 09:45:55;;;;;;;;;;;;;;;18.52;59.65;94052.78;4228137;28;20277;-58
2023/05/16 09:48:04;;;;;;;;;;;;;;;18.51;58.99;94059.94;4221697;28;19924;-61
2023/05/16 09:50:06;;;;;;;;;;;;;;;18.60;59.49;94055.13;4225412;28;19923;-59
2023/05/16 09:52:08;;;;;;;;;;;;;;;18.65;59.59;94063.25;4227130;28;19924;-62
2023/05/16 09:54:09;;;;;;;;;;;;;;;18.69;59.49;94060.94;4225516;28;19923;-60
2023/05/16 09:56:12;;;;;;;;;;;;;;;18.72;59.66;94065.81;4226886;28;20751;-60
2023/05/16 09:58:15;;;;;;;;;;;;;;;18.74;59.50;94058.44;4226150;28;20379;-63
2023/05/16 10:00:17;;;;;;;;;;;;;;;18.69;59.76;94056.47;4227103;28;19971;-60
2023/05/16 10:02:19;;;;;;;;;;;;;;;18.68;59.19;94067.28;4225675;28;19919;-61
2023/05/16 10:04:21;;;;;;;;;;;;;;;18.76;59.39;94064.31;4226056;28;19923;-62
2023/05/16 10:06:23;;;;;;;;;;;;;;;18.77;59.41;94068.56;4226556;28;19926;-63
2023/05/16 10:08:25;;;;;;;;;;;;;;;18.81;59.48;94059.97;4226273;28;19919;-63
2023/05/16 10:10:27;;;;;;;;;;;;;;;18.88;59.32;94065.19;4223805;28;19923;-61
2023/05/16 10:12:30;;;;;;;;;;;;;;;18.92;59.22;94065.56;4212345;28;19920;-61
2023/05/16 10:14:33;;;;;;;;;;;;;;;18.92;59.23;94061.03;4211903;28;19923;-59
2023/05/16 10:16:34;;;;;;;;;;;;;;;18.94;59.40;94064.28;4211694;28;20027;-62
2023/05/16 10:18:37;;;;;;;;;;;;;;;18.98;59.00;94069.97;4224265;28;19934;-61
2023/05/16 10:20:40;;;;;;;;;;;;;;;18.98;59.24;94072.63;4215142;28;19924;-62
2023/05/16 10:22:42;;;;;;;;;;;;;;;19.03;59.12;94076.19;4213945;28;19924;-61
2023/05/16 10:25:02;;;;;;;;;;;;;;;19.07;59.13;94076.56;4215276;28;19949;-61
2023/05/16 10:27:04;;;;;;;;;;;;;;;19.02;59.17;94071.94;4215059;28;19920;-61
2023/05/16 10:29:06;;;;;;;;;;;;;;;18.97;59.23;94070.97;4223627;28;19923;-60
2023/05/16 10:31:09;;;;;;;;;;;;;;;18.80;59.08;94068.97;4216671;28;20554;-61
2023/05/16 10:33:11;;;;;;;;;;;;;;;18.69;59.22;94056.47;4220208;28;19928;-60
2023/05/16 10:35:13;;;;;;;;;;;;;;;18.68;59.31;94059.31;4227904;28;20345;-60
2023/05/16 10:37:14;;;;;;;;;;;;;;;18.67;59.34;94047.06;4227110;28;20331;-62